createdAt,value
2017-09-18T00:00:03.223Z,6.1
2017-09-18T00:15:03.361Z,6.2
2017-09-18T00:30:04.971Z,6.1
2017-09-18T00:45:03.136Z,6.1
2017-09-18T01:00:04.037Z,6.3
2017-09-18T01:15:02.790Z,6.1
2017-09-18T01:30:06.676Z,5.9
2017-09-18T01:45:03.726Z,6
2017-09-18T02:00:09.846Z,5.9
2017-09-18T02:15:04.058Z,6.1
2017-09-18T02:30:04.099Z,6.2
2017-09-18T02:45:03.614Z,6.4
2017-09-18T03:00:03.709Z,6.4
2017-09-18T03:15:03.485Z,6.7
2017-09-18T03:30:04.474Z,6.8
2017-09-18T03:45:03.843Z,6.9
2017-09-18T04:00:06.135Z,6.9
2017-09-18T04:15:03.181Z,6.9
2017-09-18T04:30:03.501Z,6.7
2017-09-18T04:45:04.014Z,6.9
2017-09-18T05:00:04.219Z,7
2017-09-18T05:15:03.461Z,7.2
2017-09-18T05:30:05.133Z,7.2
2017-09-18T05:45:03.364Z,7.3
2017-09-18T06:00:08.328Z,7.4
2017-09-18T06:15:04.481Z,7.6
2017-09-18T06:30:04.250Z,7.9
2017-09-18T06:45:03.723Z,8.2
2017-09-18T07:00:06.569Z,8.6
2017-09-18T07:15:03.850Z,8.7
2017-09-18T07:30:02.941Z,9.2
2017-09-18T07:45:04.641Z,9.9
2017-09-18T08:00:04.159Z,11.2
2017-09-18T08:15:02.887Z,11.3
2017-09-18T08:30:03.195Z,12.1
2017-09-18T08:45:03.227Z,12.2
2017-09-18T09:00:03.614Z,12
2017-09-18T09:15:03.623Z,12
2017-09-18T09:30:03.800Z,12
2017-09-18T09:45:03.795Z,13.6
2017-09-18T10:00:06.182Z,12.4
2017-09-18T10:15:03.564Z,13.3
2017-09-18T10:30:02.732Z,12.2
2017-09-18T10:45:07.506Z,12.6
2017-09-18T11:00:05.953Z,12.3
2017-09-18T11:15:04.964Z,13.1
2017-09-18T11:30:06.811Z,14.1
2017-09-18T11:45:03.628Z,15.1
2017-09-18T12:00:04.248Z,15.1
2017-09-18T12:15:03.845Z,15.7
2017-09-18T12:30:03.956Z,14.9
2017-09-18T12:45:03.793Z,14.7
2017-09-18T13:00:06.210Z,15.1
2017-09-18T13:15:04.754Z,15.4
2017-09-18T13:30:06.520Z,16.4
2017-09-18T13:45:05.341Z,14.8
2017-09-18T14:00:05.776Z,15.9
2017-09-18T14:15:02.961Z,14.9
2017-09-18T14:30:04.899Z,14.8
2017-09-18T14:45:02.778Z,15
2017-09-18T15:00:04.344Z,15.2
2017-09-18T15:15:03.063Z,14.9
2017-09-18T15:30:02.943Z,14.6
2017-09-18T15:45:02.661Z,14.6
2017-09-18T16:00:03.947Z,14.2
2017-09-18T16:15:02.865Z,14.3
2017-09-18T16:30:03.293Z,13.9
2017-09-18T16:45:03.644Z,13.4
2017-09-18T17:00:03.996Z,12.9
2017-09-18T17:15:03.100Z,12.3
2017-09-18T17:30:03.656Z,11.8
2017-09-18T17:45:04.136Z,11.4
2017-09-18T18:00:03.592Z,11.1
2017-09-18T18:15:03.804Z,10.9
2017-09-18T18:30:04.593Z,10.6
2017-09-18T18:45:02.845Z,10.4
2017-09-18T19:00:04.299Z,10.2
2017-09-18T19:15:03.485Z,9.9
2017-09-18T19:30:04.272Z,9.9
2017-09-18T19:45:03.124Z,9.4
2017-09-18T20:00:04.011Z,9.5
2017-09-18T20:15:02.754Z,9.1
2017-09-18T20:30:02.956Z,9.2
2017-09-18T20:45:02.548Z,9
2017-09-18T21:00:03.982Z,8.8
2017-09-18T21:15:02.963Z,8.6
2017-09-18T21:30:02.603Z,8.6
2017-09-18T21:45:03.439Z,8.4
2017-09-18T22:00:04.029Z,8.3
2017-09-18T22:15:02.645Z,8.2
2017-09-18T22:30:05.120Z,8.1
2017-09-18T22:45:03.071Z,8.1
2017-09-18T23:00:03.164Z,8.1
2017-09-18T23:15:03.638Z,8
2017-09-18T23:30:04.361Z,8.1
2017-09-18T23:45:03.515Z,7.8
